Time;durP1;ratioP1;P1;durP2;ratioP2;P2;SDS_P1;SDS_P2;PMS_P1;PMS_P2;Temp;Humidity;BMP_temperature;BMP_pressure;BME280_temperature;BME280_humidity;BME280_pressure;Samples;Min_cycle;Max_cycle;Signal;HPM_P1;HPM_P2
2023/11/29 00:00:38;;;;;;;41.50;30.40;;;;;;;-2.77;81.98;95678.09;104859;1256;102614;-73
2023/11/29 00:03:33;;;;;;;45.50;30.60;;;;;;;-2.75;82.04;95687.92;104736;1260;100431;-72
2023/11/29 00:06:02;;;;;;;41.80;29.30;;;;;;;-2.74;82.02;95692.41;104662;1257;99050;-73
2023/11/29 00:08:31;;;;;;;41.10;29.40;;;;;;;-2.73;82.02;95695.31;104718;1269;98002;-73
2023/11/29 00:10:59;;;;;;;43.40;30.90;;;;;;;-2.72;82.03;95701.67;104331;1264;98364;-74
2023/11/29 00:13:27;;;;;;;43.70;31.30;;;;;;;-2.70;82.15;95701.61;104521;1273;102886;-72
2023/11/29 00:15:54;;;;;;;39.20;29.20;;;;;;;-2.69;82.13;95706.46;104589;1259;101215;-85
2023/11/29 00:18:22;;;;;;;42.80;31.70;;;;;;;-2.71;82.22;95713.92;104474;1259;99098;-85
2023/11/29 00:20:50;;;;;;;45.90;31.30;;;;;;;-2.74;82.15;95722.81;104485;1262;98096;-86
2023/11/29 00:23:18;;;;;;;43.20;31.90;;;;;;;-2.74;82.14;95727.23;104558;1265;98476;-86
2023/11/29 00:25:46;;;;;;;44.80;32.80;;;;;;;-2.74;82.23;95728.33;104506;1275;103541;-86
2023/11/29 00:28:14;;;;;;;44.80;32.20;;;;;;;-2.73;82.32;95730.14;104535;1259;100292;-86
2023/11/29 00:30:42;;;;;;;45.60;32.60;;;;;;;-2.73;82.30;95733.84;104531;1265;100024;-74
2023/11/29 00:33:10;;;;;;;47.60;34.30;;;;;;;-2.76;82.23;95733.25;104408;1261;98099;-87
2023/11/29 00:35:38;;;;;;;42.90;32.20;;;;;;;-2.79;82.29;95739.98;104542;1264;99137;-73
2023/11/29 00:38:05;;;;;;;40.30;29.40;;;;;;;-2.81;82.27;95747.20;104491;1265;102597;-82
2023/11/29 00:40:33;;;;;;;43.20;30.30;;;;;;;-2.83;82.17;95753.67;104502;1262;101527;-83
2023/11/29 00:43:01;;;;;;;43.90;31.20;;;;;;;-2.87;82.14;95756.42;104658;1259;100147;-82
2023/11/29 00:45:29;;;;;;;45.60;32.20;;;;;;;-2.89;82.00;95762.52;104750;1271;98185;-83
2023/11/29 00:47:57;;;;;;;42.70;30.40;;;;;;;-2.89;82.15;95770.64;104870;1259;98559;-83
2023/11/29 00:50:25;;;;;;;42.60;28.90;;;;;;;-2.93;81.99;95771.07;104761;1259;111661;-83
2023/11/29 00:52:53;;;;;;;41.70;29.50;;;;;;;-2.92;82.06;95779.91;104708;1269;101490;-84
2023/11/29 00:55:21;;;;;;;42.10;29.90;;;;;;;-2.91;82.09;95779.98;104780;1259;99614;-74
2023/11/29 00:57:49;;;;;;;44.50;31.30;;;;;;;-2.90;82.10;95784.00;104713;1259;97823;-75
2023/11/29 01:00:16;;;;;;;41.50;30.10;;;;;;;-2.90;81.98;95785.41;104707;1259;99235;-74
2023/11/29 01:02:44;;;;;;;43.30;29.70;;;;;;;-3.01;81.73;95791.47;104758;1278;103905;-75
2023/11/29 01:05:12;;;;;;;41.00;29.40;;;;;;;-3.06;81.86;95800.81;104724;1259;101736;-75
2023/11/29 01:07:40;;;;;;;44.80;31.40;;;;;;;-3.04;82.09;95804.52;104681;1259;99984;-74
2023/11/29 01:10:09;;;;;;;45.00;31.00;;;;;;;-2.99;82.20;95808.36;104685;1260;97934;-74
2023/11/29 01:12:36;;;;;;;44.30;31.60;;;;;;;-2.93;82.29;95811.42;104723;1269;97847;-74
2023/11/29 01:15:05;;;;;;;47.80;32.10;;;;;;;-2.90;82.28;95806.98;104571;1270;153396;-73
2023/11/29 01:17:34;;;;;;;42.00;30.30;;;;;;;-2.89;82.23;95807.61;104724;1259;100480;-85
2023/11/29 01:20:02;;;;;;;43.90;31.00;;;;;;;-2.94;82.04;95812.91;104759;1259;98789;-86
2023/11/29 01:22:31;;;;;;;46.20;32.60;;;;;;;-3.00;82.03;95819.41;104820;1258;97908;-86
2023/11/29 01:24:58;;;;;;;47.70;31.70;;;;;;;-3.04;82.07;95815.63;104702;1259;98420;-87
2023/11/29 01:27:30;;;;;;;47.90;33.00;;;;;;;-3.01;82.18;95816.38;104736;1269;103627;-87
2023/11/29 01:29:58;;;;;;;35.60;24.30;;;;;;;-3.00;82.15;95819.91;104531;1274;100431;-73
2023/11/29 01:32:26;;;;;;;45.00;32.90;;;;;;;-3.08;82.03;95823.98;104741;1267;99989;-83
2023/11/29 01:34:54;;;;;;;47.00;32.30;;;;;;;-3.11;82.14;95828.81;104595;1260;97929;-81
2023/11/29 01:37:22;;;;;;;42.80;29.60;;;;;;;-3.08;82.25;95833.51;104749;1260;97921;-82
2023/11/29 01:39:50;;;;;;;40.30;29.40;;;;;;;-3.06;82.04;95835.23;104699;1260;104273;-82
2023/11/29 01:42:18;;;;;;;40.90;28.60;;;;;;;-3.05;81.97;95836.65;104736;1259;101344;-86
2023/11/29 01:44:46;;;;;;;43.40;29.40;;;;;;;-3.06;81.74;95839.09;104732;1259;98658;-86
2023/11/29 01:47:17;;;;;;;40.60;28.00;;;;;;;-3.12;81.51;95839.52;104791;1259;97919;-74
2023/11/29 01:49:45;;;;;;;44.80;30.20;;;;;;;-3.16;81.36;95844.27;104754;1274;98425;-72
2023/11/29 01:52:14;;;;;;;44.60;30.80;;;;;;;-3.14;81.41;95846.43;104775;1259;102632;-73
2023/11/29 01:54:43;;;;;;;43.80;31.00;;;;;;;-3.09;81.69;95845.22;104627;1267;101325;-73
2023/11/29 01:57:11;;;;;;;42.70;29.90;;;;;;;-3.03;81.65;95851.63;104723;1268;100134;-74
2023/11/29 01:59:39;;;;;;;48.00;32.00;;;;;;;-3.04;81.42;95852.88;104677;1259;97906;-72
2023/11/29 02:02:07;;;;;;;47.10;31.60;;;;;;;-3.09;81.27;95860.16;104825;1262;98384;-81
2023/11/29 02:04:35;;;;;;;45.70;31.30;;;;;;;-3.10;81.25;95864.71;104801;1270;103110;-85
2023/11/29 02:07:04;;;;;;;46.60;31.50;;;;;;;-3.08;81.26;95863.27;104681;1269;108820;-83
2023/11/29 02:09:34;;;;;;;51.20;32.90;;;;;;;-3.07;81.19;95865.02;104537;1261;100196;-82
2023/11/29 02:12:04;;;;;;;46.00;31.10;;;;;;;-3.06;81.16;95860.14;104724;1259;98725;-83
2023/11/29 02:14:32;;;;;;;47.20;31.70;;;;;;;-3.13;80.93;95860.20;104622;1273;99266;-83
2023/11/29 02:17:00;;;;;;;48.10;33.30;;;;;;;-3.15;80.89;95860.51;104741;1259;103703;-86
2023/11/29 02:19:27;;;;;;;49.10;33.10;;;;;;;-3.16;80.88;95865.39;104743;1269;101437;-86
2023/11/29 02:21:56;;;;;;;52.80;35.60;;;;;;;-3.34;80.58;95866.35;104679;1270;99910;-87
2023/11/29 02:24:29;;;;;;;53.30;34.80;;;;;;;-3.55;80.54;95870.41;104762;1270;99225;-88
2023/11/29 02:26:57;;;;;;;53.50;34.80;;;;;;;-3.58;80.72;95871.75;104591;1263;98505;-75
2023/11/29 02:29:25;;;;;;;52.30;34.60;;;;;;;-3.65;80.78;95873.71;104708;1259;102433;-75
2023/11/29 02:31:53;;;;;;;51.50;34.00;;;;;;;-3.67;80.78;95870.41;104507;1260;101535;-82
2023/11/29 02:34:21;;;;;;;57.30;36.50;;;;;;;-3.66;80.93;95872.57;104771;1269;99733;-83
2023/11/29 02:36:48;;;;;;;54.40;35.50;;;;;;;-3.64;80.87;95878.34;104726;1259;97967;-82
2023/11/29 02:39:16;;;;;;;56.50;35.70;;;;;;;-3.63;80.82;95882.83;104792;1259;98446;-82
2023/11/29 02:41:44;;;;;;;53.70;35.30;;;;;;;-3.60;80.75;95890.54;104718;1261;103521;-82
2023/11/29 02:44:12;;;;;;;53.10;35.30;;;;;;;-3.56;80.62;95894.61;104879;1261;101383;-82
2023/11/29 02:46:40;;;;;;;58.90;38.00;;;;;;;-3.56;80.49;95900.70;104727;1263;99869;-87
2023/11/29 02:49:08;;;;;;;58.40;37.50;;;;;;;-3.59;80.46;95901.25;104712;1263;97916;-75
2023/11/29 02:51:36;;;;;;;58.40;37.40;;;;;;;-3.58;80.47;95903.07;104770;1260;98455;-82
2023/11/29 02:54:04;;;;;;;57.00;36.00;;;;;;;-3.53;80.55;95907.28;104777;1260;102133;-81
2023/11/29 02:56:31;;;;;;;57.90;36.30;;;;;;;-3.48;80.51;95912.83;104578;1262;100491;-83
2023/11/29 02:58:59;;;;;;;62.50;39.00;;;;;;;-3.42;80.50;95919.97;104740;1270;98726;-84
2023/11/29 03:01:27;;;;;;;57.80;35.90;;;;;;;-3.38;80.42;95927.42;104764;1270;99290;-83
2023/11/29 03:03:55;;;;;;;58.70;37.90;;;;;;;-3.34;80.36;95929.30;104718;1276;99777;-83
2023/11/29 03:06:23;;;;;;;56.90;37.00;;;;;;;-3.30;80.26;95926.89;104736;1269;102520;-73
2023/11/29 03:08:51;;;;;;;55.00;37.10;;;;;;;-3.27;80.18;95924.00;104699;1263;101506;-88
2023/11/29 03:11:19;;;;;;;57.30;36.80;;;;;;;-3.25;80.16;95923.82;104677;1261;99864;-74
2023/11/29 03:13:47;;;;;;;54.00;36.30;;;;;;;-3.24;80.09;95922.98;104691;1259;97935;-76
2023/11/29 03:16:15;;;;;;;55.40;35.90;;;;;;;-3.23;80.01;95924.91;104681;1264;98421;-74
2023/11/29 03:18:42;;;;;;;57.00;37.20;;;;;;;-3.26;79.88;95926.16;104779;1259;102680;-75
2023/11/29 03:21:10;;;;;;;57.20;37.50;;;;;;;-3.28;79.90;95922.64;104694;1256;101356;-74
2023/11/29 03:23:38;;;;;;;56.30;36.30;;;;;;;-3.29;79.86;95929.34;104692;1270;100070;-75
2023/11/29 03:26:06;;;;;;;55.40;36.50;;;;;;;-3.35;79.66;95933.14;104719;1269;97963;-87
2023/11/29 03:28:34;;;;;;;56.90;37.20;;;;;;;-3.42;79.55;95934.08;104681;1260;98396;-74
2023/11/29 03:31:02;;;;;;;58.50;37.50;;;;;;;-3.47;79.63;95935.61;104732;1263;103479;-73
2023/11/29 03:33:30;;;;;;;54.80;35.50;;;;;;;-3.48;79.66;95933.85;104723;1272;101178;-73
2023/11/29 03:36:08;;;;;;;56.50;38.60;;;;;;;-3.50;79.62;95933.65;104752;1270;100298;-72
2023/11/29 03:38:36;;;;;;;56.90;37.50;;;;;;;-3.53;79.71;95930.79;104714;1261;98832;-73
2023/11/29 03:41:04;;;;;;;60.60;39.50;;;;;;;-3.54;79.65;95935.02;104612;1257;99451;-73
2023/11/29 03:43:32;;;;;;;57.10;37.80;;;;;;;-3.58;79.62;95939.63;104691;1262;103825;-73
2023/11/29 03:45:59;;;;;;;60.10;39.20;;;;;;;-3.61;79.52;95943.44;104758;1261;100353;-76
2023/11/29 03:48:27;;;;;;;61.20;38.90;;;;;;;-3.64;79.52;95949.91;104736;1267;99261;-82
2023/11/29 03:50:55;;;;;;;60.60;40.10;;;;;;;-3.69;79.41;95950.27;104697;1269;98063;-82
2023/11/29 03:53:23;;;;;;;57.90;37.80;;;;;;;-3.73;79.36;95950.28;104815;1262;98431;-82
2023/11/29 03:55:51;;;;;;;56.80;36.90;;;;;;;-3.74;79.26;95950.48;104739;1261;103546;-83
2023/11/29 03:58:19;;;;;;;57.70;36.80;;;;;;;-3.78;79.13;95951.77;104765;1260;101459;-82
2023/11/29 04:00:46;;;;;;;59.90;38.70;;;;;;;-3.82;79.07;95952.89;104729;1261;108851;-80
2023/11/29 04:03:14;;;;;;;57.00;36.20;;;;;;;-3.86;78.91;95955.60;104726;1260;97920;-75
2023/11/29 04:05:42;;;;;;;61.40;39.90;;;;;;;-3.91;78.74;95954.00;104799;1263;98491;-83
2023/11/29 04:08:10;;;;;;;57.40;38.80;;;;;;;-3.95;78.66;95957.60;104728;1259;103541;-73
2023/11/29 04:10:38;;;;;;;55.70;37.50;;;;;;;-4.02;78.50;95962.45;104736;1272;100200;-73
2023/11/29 04:13:06;;;;;;;56.60;37.20;;;;;;;-4.11;78.31;95964.21;104768;1270;98600;-74
2023/11/29 04:15:34;;;;;;;55.30;37.50;;;;;;;-4.18;78.26;95967.66;104766;1269;97835;-73
2023/11/29 04:18:02;;;;;;;55.60;35.80;;;;;;;-4.27;78.15;95971.89;104813;1260;98523;-75
2023/11/29 04:20:30;;;;;;;53.00;33.50;;;;;;;-4.33;78.15;95974.80;104760;1269;102324;-75
2023/11/29 04:22:58;;;;;;;53.00;34.80;;;;;;;-4.38;78.03;95981.30;104768;1259;100422;-86
2023/11/29 04:25:25;;;;;;;54.40;35.20;;;;;;;-4.44;78.02;95982.50;104749;1267;98732;-75
2023/11/29 04:27:53;;;;;;;52.30;33.80;;;;;;;-4.50;77.98;95978.59;104744;1260;97831;-74
2023/11/29 04:30:21;;;;;;;51.10;33.90;;;;;;;-4.57;78.03;95982.34;104752;1269;97981;-74
2023/11/29 04:32:49;;;;;;;52.20;33.80;;;;;;;-4.64;77.91;95987.72;104779;1270;102692;-87
2023/11/29 04:35:17;;;;;;;48.50;31.60;;;;;;;-4.71;77.82;95995.29;104730;1270;101401;-88
2023/11/29 04:37:45;;;;;;;55.40;34.70;;;;;;;-4.77;77.81;96002.66;104663;1256;100088;-88
2023/11/29 04:40:13;;;;;;;52.50;33.60;;;;;;;-4.80;77.74;96012.66;104750;1270;97845;-86
2023/11/29 04:42:41;;;;;;;49.40;34.20;;;;;;;-4.88;77.43;96021.38;104791;1257;98463;-73
2023/11/29 04:45:09;;;;;;;48.30;31.90;;;;;;;-4.97;77.40;96021.05;104757;1270;102051;-88
2023/11/29 04:47:37;;;;;;;50.20;33.40;;;;;;;-5.02;77.27;96019.23;104725;1269;101312;-86
2023/11/29 04:50:06;;;;;;;53.10;34.20;;;;;;;-5.09;77.22;96023.20;104747;1270;98733;-86
2023/11/29 04:52:34;;;;;;;56.20;35.60;;;;;;;-5.15;77.41;96028.02;104840;1270;97961;-86
2023/11/29 04:55:02;;;;;;;56.90;35.50;;;;;;;-5.19;77.45;96029.52;104793;1270;98568;-87
2023/11/29 04:57:30;;;;;;;54.80;35.40;;;;;;;-5.22;77.42;96032.27;104754;1263;102763;-86
2023/11/29 04:59:58;;;;;;;54.70;35.90;;;;;;;-5.28;77.39;96032.85;104724;1262;100014;-86
2023/11/29 05:02:26;;;;;;;55.60;36.40;;;;;;;-5.32;77.42;96039.39;104647;1263;106637;-83
2023/11/29 05:04:54;;;;;;;54.20;36.80;;;;;;;-5.37;77.40;96038.11;104744;1261;97976;-73
2023/11/29 05:07:22;;;;;;;55.30;36.70;;;;;;;-5.42;77.25;96035.55;104723;1260;98973;-73
2023/11/29 05:09:50;;;;;;;56.90;37.70;;;;;;;-5.47;77.27;96029.86;104834;1260;103564;-74
2023/11/29 05:12:18;;;;;;;55.20;35.90;;;;;;;-5.51;77.32;96032.69;104791;1260;100142;-74
2023/11/29 05:14:46;;;;;;;57.30;38.80;;;;;;;-5.53;77.29;96038.34;104758;1269;100011;-72
2023/11/29 05:17:14;;;;;;;63.10;39.80;;;;;;;-5.59;77.16;96044.55;104802;1261;97965;-83
2023/11/29 05:19:42;;;;;;;58.00;39.80;;;;;;;-5.66;77.41;96045.77;104701;1260;98421;-83
2023/11/29 05:22:10;;;;;;;61.40;39.20;;;;;;;-5.67;77.62;96045.44;104769;1257;102833;-82
2023/11/29 05:24:38;;;;;;;64.30;41.60;;;;;;;-5.64;77.84;96045.67;104757;1270;100213;-73
2023/11/29 05:27:06;;;;;;;86.20;60.10;;;;;;;-5.58;77.94;96047.98;104753;1257;100297;-73
2023/11/29 05:29:34;;;;;;;89.30;60.70;;;;;;;-5.55;78.03;96054.88;104690;1272;98162;-73
2023/11/29 05:32:02;;;;;;;74.20;49.30;;;;;;;-5.52;78.14;96059.09;104717;1270;98438;-82
2023/11/29 05:34:31;;;;;;;69.70;44.40;;;;;;;-5.49;78.15;96062.70;104824;1270;102625;-80
2023/11/29 05:36:59;;;;;;;64.90;43.00;;;;;;;-5.49;78.08;96065.27;104832;1260;100389;-83
2023/11/29 05:39:27;;;;;;;61.90;40.10;;;;;;;-5.47;78.16;96066.01;104734;1269;98695;-83
2023/11/29 05:41:56;;;;;;;65.60;41.10;;;;;;;-5.46;78.20;96067.34;104763;1259;98024;-82
2023/11/29 05:44:24;;;;;;;62.60;40.10;;;;;;;-5.48;78.22;96072.08;104850;1269;98412;-74
2023/11/29 05:46:52;;;;;;;73.50;47.50;;;;;;;-5.44;78.36;96074.19;104785;1257;103272;-74
2023/11/29 05:49:27;;;;;;;68.10;46.40;;;;;;;-5.42;78.37;96075.94;104791;1273;102301;-75
2023/11/29 05:51:57;;;;;;;69.80;46.40;;;;;;;-5.45;78.40;96075.11;104596;1273;100328;-74
2023/11/29 05:54:26;;;;;;;68.60;44.60;;;;;;;-5.46;78.30;96079.58;104714;1261;97909;-74
2023/11/29 05:56:55;;;;;;;69.70;45.10;;;;;;;-5.48;78.42;96082.89;104524;1261;98451;-74
2023/11/29 05:59:23;;;;;;;72.20;45.80;;;;;;;-5.48;78.45;96084.27;104776;1274;103752;-85
2023/11/29 06:01:52;;;;;;;69.00;45.70;;;;;;;-5.46;78.47;96085.39;104775;1259;101094;-76
2023/11/29 06:04:27;;;;;;;70.40;45.10;;;;;;;-5.46;78.46;96089.42;104829;1260;100083;-82
2023/11/29 06:06:55;;;;;;;71.10;44.20;;;;;;;-5.47;78.48;96095.80;104746;1270;97919;-82
2023/11/29 06:09:28;;;;;;;68.40;44.20;;;;;;;-5.47;78.46;96100.16;104780;1261;99665;-84
2023/11/29 06:11:56;;;;;;;66.80;43.00;;;;;;;-5.48;78.44;96103.27;104805;1269;102334;-83
2023/11/29 06:14:24;;;;;;;68.60;45.90;;;;;;;-5.48;78.48;96105.55;104795;1260;101823;-81
2023/11/29 06:16:53;;;;;;;70.60;46.90;;;;;;;-5.46;78.48;96107.67;104781;1271;98481;-82
2023/11/29 06:19:21;;;;;;;70.00;45.40;;;;;;;-5.46;78.63;96104.32;104714;1276;97932;-75
2023/11/29 06:21:49;;;;;;;72.20;47.60;;;;;;;-5.43;78.73;96103.71;104823;1261;98597;-82
2023/11/29 06:24:17;;;;;;;71.20;46.80;;;;;;;-5.43;78.59;96109.80;104780;1270;103568;-83
2023/11/29 06:26:45;;;;;;;71.50;47.50;;;;;;;-5.44;78.60;96114.34;104849;1260;101120;-84
2023/11/29 06:29:13;;;;;;;71.50;46.40;;;;;;;-5.44;78.75;96113.94;104727;1262;98769;-83
2023/11/29 06:31:41;;;;;;;72.00;45.90;;;;;;;-5.45;78.61;96115.60;104801;1256;99228;-73
2023/11/29 06:34:08;;;;;;;73.90;47.20;;;;;;;-5.49;78.47;96116.27;104757;1260;98472;-73
2023/11/29 06:36:37;;;;;;;67.60;43.90;;;;;;;-5.50;78.43;96120.09;104817;1272;102050;-73
2023/11/29 06:39:04;;;;;;;70.30;45.80;;;;;;;-5.52;78.42;96129.73;104703;1262;101419;-73
2023/11/29 06:41:32;;;;;;;66.50;44.80;;;;;;;-5.53;78.31;96130.58;104848;1258;99983;-76
2023/11/29 06:44:00;;;;;;;63.00;41.50;;;;;;;-5.56;78.25;96133.46;104829;1270;97932;-75
2023/11/29 06:46:28;;;;;;;68.20;44.50;;;;;;;-5.57;78.21;96138.16;104876;1259;98393;-75
2023/11/29 06:48:56;;;;;;;68.70;45.40;;;;;;;-5.58;78.23;96139.42;104761;1260;103886;-75
2023/11/29 06:51:24;;;;;;;74.80;45.90;;;;;;;-5.58;78.25;96138.23;104751;1270;101486;-74
2023/11/29 06:53:52;;;;;;;77.30;48.30;;;;;;;-5.60;78.22;96141.70;104833;1267;108888;-76
2023/11/29 06:56:20;;;;;;;80.10;49.20;;;;;;;-5.62;78.34;96146.48;104822;1260;98840;-75
2023/11/29 06:58:48;;;;;;;77.40;50.00;;;;;;;-5.64;78.37;96155.29;104832;1257;99152;-83
2023/11/29 07:01:16;;;;;;;77.70;49.80;;;;;;;-5.67;78.46;96160.58;104794;1263;103556;-83
2023/11/29 07:03:44;;;;;;;77.10;51.30;;;;;;;-5.68;78.40;96166.14;104792;1263;101245;-85
2023/11/29 07:06:23;;;;;;;83.80;51.90;;;;;;;-5.70;78.57;96171.06;104851;1260;99833;-81
2023/11/29 07:08:51;;;;;;;105.60;67.50;;;;;;;-5.66;78.84;96174.22;104738;1257;98117;-83
2023/11/29 07:11:19;;;;;;;112.60;69.20;;;;;;;-5.62;78.93;96173.80;104801;1270;99634;-83
2023/11/29 07:13:47;;;;;;;109.60;66.70;;;;;;;-5.62;78.86;96177.29;104861;1270;102773;-82
2023/11/29 07:16:15;;;;;;;118.60;71.50;;;;;;;-5.60;78.84;96179.25;104805;1270;100366;-76
2023/11/29 07:18:43;;;;;;;134.70;76.90;;;;;;;-5.57;78.85;96178.94;104791;1262;99730;-82
2023/11/29 07:21:11;;;;;;;130.50;77.30;;;;;;;-5.57;78.76;96180.52;104872;1260;97935;-83
2023/11/29 07:23:39;;;;;;;140.40;86.80;;;;;;;-5.56;78.74;96177.80;104827;1260;99819;-82
2023/11/29 07:26:07;;;;;;;143.40;84.60;;;;;;;-5.55;78.74;96178.10;104778;1258;102758;-82
2023/11/29 07:28:35;;;;;;;144.10;89.70;;;;;;;-5.58;78.71;96180.61;104798;1270;100506;-84
2023/11/29 07:31:09;;;;;;;136.30;86.40;;;;;;;-5.61;78.56;96175.79;104801;1274;99755;-84
2023/11/29 07:33:37;;;;;;;141.60;84.50;;;;;;;-5.62;78.40;96176.98;104707;1257;97989;-84
2023/11/29 07:36:13;;;;;;;153.90;96.90;;;;;;;-5.64;78.33;96178.89;104783;1270;98446;-75
2023/11/29 07:38:42;;;;;;;155.10;95.00;;;;;;;-5.63;78.50;96184.46;104523;1264;103899;-83
2023/11/29 07:41:11;;;;;;;144.40;86.40;;;;;;;-5.62;78.45;96186.58;104524;1264;100426;-83
2023/11/29 07:43:39;;;;;;;174.60;114.40;;;;;;;-5.59;78.71;96187.00;104826;1270;100292;-83
2023/11/29 07:46:06;;;;;;;189.20;126.30;;;;;;;-5.52;78.82;96190.77;104855;1268;99122;-75
2023/11/29 07:48:34;;;;;;;183.60;115.20;;;;;;;-5.48;78.88;96192.48;104701;1270;98478;-77
2023/11/29 07:51:03;;;;;;;188.70;118.90;;;;;;;-5.43;78.84;96192.05;104645;1257;105311;-75
2023/11/29 07:53:30;;;;;;;174.60;112.30;;;;;;;-5.36;78.77;96196.35;104807;1259;101471;-75
2023/11/29 07:55:58;;;;;;;164.60;108.70;;;;;;;-5.32;78.65;96200.49;104756;1260;99980;-84
2023/11/29 07:58:26;;;;;;;163.80;104.90;;;;;;;-5.27;78.64;96207.95;104774;1257;97889;-86
2023/11/29 08:00:54;;;;;;;170.70;104.30;;;;;;;-5.23;78.67;96210.55;104776;1260;99578;-83
2023/11/29 08:03:22;;;;;;;171.50;106.30;;;;;;;-5.20;78.64;96212.17;104803;1263;102092;-83
2023/11/29 08:05:50;;;;;;;176.90;104.90;;;;;;;-5.15;78.60;96212.42;104813;1260;100490;-84
2023/11/29 08:08:19;;;;;;;120.10;74.70;;;;;;;-5.11;78.65;96208.81;104659;1255;98509;-83
2023/11/29 08:10:48;;;;;;;109.20;69.10;;;;;;;-5.07;78.60;96208.48;104807;1261;97861;-81
2023/11/29 08:13:16;;;;;;;99.60;61.60;;;;;;;-5.01;78.55;96213.34;104789;1271;100298;-84
2023/11/29 08:15:43;;;;;;;91.20;56.20;;;;;;;-4.98;78.42;96213.36;104816;1257;103855;-87
2023/11/29 08:18:12;;;;;;;94.80;57.30;;;;;;;-4.94;78.33;96219.20;104786;1259;100596;-76
2023/11/29 08:20:40;;;;;;;93.80;57.40;;;;;;;-4.91;78.47;96219.92;104700;1260;100113;-75
2023/11/29 08:23:08;;;;;;;87.40;57.00;;;;;;;-4.84;78.29;96217.98;104764;1261;97956;-76
2023/11/29 08:25:36;;;;;;;92.50;57.60;;;;;;;-4.77;78.14;96217.56;104663;1264;99223;-77
2023/11/29 08:28:04;;;;;;;104.90;68.10;;;;;;;-4.73;78.09;96220.23;104790;1257;103422;-75
2023/11/29 08:30:32;;;;;;;96.00;60.90;;;;;;;-4.67;78.09;96222.41;104809;1259;100304;-78
2023/11/29 08:33:00;;;;;;;103.40;64.30;;;;;;;-4.60;78.16;96231.50;104775;1261;99900;-86
2023/11/29 08:35:28;;;;;;;99.30;64.80;;;;;;;-4.49;78.16;96235.02;104769;1268;99188;-74
2023/11/29 08:37:56;;;;;;;84.40;53.70;;;;;;;-4.35;78.25;96233.88;104778;1261;99117;-76
2023/11/29 08:40:24;;;;;;;78.80;49.20;;;;;;;-4.24;77.91;96233.08;104862;1261;103566;-77
2023/11/29 08:42:52;;;;;;;76.10;44.90;;;;;;;-4.18;77.55;96238.54;104776;1271;101443;-76
2023/11/29 08:45:20;;;;;;;73.40;44.10;;;;;;;-4.13;77.43;96242.63;104810;1256;100090;-75
2023/11/29 08:47:48;;;;;;;68.70;45.20;;;;;;;-4.05;77.35;96247.89;104796;1259;97874;-75
2023/11/29 08:50:16;;;;;;;65.30;40.60;;;;;;;-3.95;77.13;96250.51;104785;1270;98936;-75
2023/11/29 08:52:44;;;;;;;66.30;42.60;;;;;;;-3.87;77.01;96251.77;104846;1271;103639;-81
2023/11/29 08:55:12;;;;;;;68.90;42.50;;;;;;;-3.78;76.86;96249.52;104675;1271;101918;-81
2023/11/29 08:57:43;;;;;;;67.80;42.20;;;;;;;-3.73;76.80;96248.44;104778;1260;100170;-81
2023/11/29 09:00:12;;;;;;;60.30;38.30;;;;;;;-3.67;76.63;96249.13;104894;1256;97984;-82
2023/11/29 09:02:40;;;;;;;58.50;38.00;;;;;;;-3.62;76.53;96246.46;104875;1264;99609;-73
2023/11/29 09:05:09;;;;;;;58.40;38.00;;;;;;;-3.55;76.38;96251.40;104983;1270;103604;-73
2023/11/29 09:07:37;;;;;;;61.00;39.20;;;;;;;-3.43;76.52;96249.69;104529;1263;101485;-73
2023/11/29 09:10:06;;;;;;;61.60;37.50;;;;;;;-3.28;76.45;96246.23;104736;1260;100136;-73
2023/11/29 09:12:35;;;;;;;68.20;41.70;;;;;;;-3.14;76.05;96242.42;104850;1256;97947;-73
2023/11/29 09:15:05;;;;;;;69.50;42.50;;;;;;;-3.04;75.99;96241.20;104696;1261;98963;-78
2023/11/29 09:17:33;;;;;;;73.70;44.70;;;;;;;-2.92;75.85;96237.77;104938;1259;102257;-87
2023/11/29 09:20:01;;;;;;;71.80;45.50;;;;;;;-2.81;75.70;96232.80;104743;1257;100370;-87
2023/11/29 09:22:29;;;;;;;71.90;45.30;;;;;;;-2.71;75.59;96228.30;104849;1256;100035;-86
2023/11/29 09:24:59;;;;;;;74.00;46.80;;;;;;;-2.66;75.36;96229.67;104811;1261;97975;-86
2023/11/29 09:27:28;;;;;;;68.80;43.50;;;;;;;-2.62;75.12;96230.77;104860;1260;98406;-85
2023/11/29 09:29:56;;;;;;;70.80;45.80;;;;;;;-2.49;75.12;96231.25;104638;1270;103740;-84
2023/11/29 09:32:27;;;;;;;70.30;42.60;;;;;;;-2.36;74.74;96230.64;104706;1260;100203;-76
2023/11/29 09:35:00;;;;;;;63.10;39.90;;;;;;;-2.24;74.38;96225.79;104687;1260;98636;-75
2023/11/29 09:37:28;;;;;;;65.60;41.80;;;;;;;-2.13;74.05;96223.97;104842;1260;98011;-75
2023/11/29 09:39:56;;;;;;;64.50;39.60;;;;;;;-2.05;73.90;96224.07;104830;1260;98444;-74
2023/11/29 09:42:34;;;;;;;61.40;37.60;;;;;;;-1.97;73.84;96221.82;104852;1259;103625;-75
2023/11/29 09:45:09;;;;;;;60.70;36.70;;;;;;;-1.83;73.79;96217.89;104750;1259;100232;-74
2023/11/29 09:47:39;;;;;;;62.40;37.20;;;;;;;-1.81;73.29;96214.83;104497;1256;99008;-75
2023/11/29 09:50:08;;;;;;;73.80;40.50;;;;;;;-1.71;73.26;96212.36;104746;1261;99160;-78
2023/11/29 09:52:42;;;;;;;68.30;37.60;;;;;;;-1.55;73.13;96212.96;104825;1260;97912;-78
2023/11/29 09:55:11;;;;;;;59.70;35.50;;;;;;;-1.34;73.09;96210.07;104736;1262;102965;-76
2023/11/29 09:57:39;;;;;;;57.30;35.60;;;;;;;-1.10;72.46;96212.45;104891;1268;101382;-76
2023/11/29 10:00:10;;;;;;;61.30;37.30;;;;;;;-0.98;71.82;96211.52;104769;1270;99944;-76
2023/11/29 10:02:39;;;;;;;53.70;33.80;;;;;;;-0.88;71.75;96205.03;104492;1256;98086;-78
2023/11/29 10:33:24;;;;;;;42.70;25.10;;;;;;;1.34;67.19;96199.69;105562;1264;94098;-90
2023/11/29 10:36:14;;;;;;;39.90;23.80;;;;;;;1.59;67.07;96196.55;106852;1247;95870;-81
2023/11/29 10:39:21;;;;;;;44.20;26.70;;;;;;;1.84;66.08;96192.52;107427;1242;98325;-80
2023/11/29 10:42:37;;;;;;;38.40;22.70;;;;;;;2.03;65.63;96193.73;106935;1258;101903;-82
2023/11/29 10:45:44;;;;;;;30.00;19.20;;;;;;;2.28;65.00;96195.43;105716;1267;98739;-80
2023/11/29 10:48:57;;;;;;;31.60;18.90;;;;;;;2.48;64.18;96194.33;105092;1266;95929;-80
2023/11/29 11:29:06;;;;;;;28.30;17.20;;;;;;;4.57;55.88;96182.23;105158;1267;97573;-87
2023/11/29 11:32:13;;;;;;;37.10;20.30;;;;;;;4.58;56.53;96181.93;106646;1253;99064;-80
2023/11/29 11:35:39;;;;;;;32.40;20.10;;;;;;;4.66;56.67;96183.97;106287;1257;96141;-80
2023/11/29 11:38:26;;;;;;;38.00;21.40;;;;;;;4.73;56.19;96182.03;105205;1266;96146;-82
2023/11/29 11:41:26;;;;;;;33.90;19.60;;;;;;;4.77;56.34;96179.53;104767;1282;98318;-82
2023/11/29 12:07:54;;;;;;;35.50;20.10;;;;;;;4.51;55.44;96173.52;104865;1266;653701;-86
2023/11/29 12:11:01;;;;;;;32.50;20.00;;;;;;;4.25;54.64;96176.56;102323;1258;5353297;-81
2023/11/29 12:14:08;;;;;;;34.10;19.80;;;;;;;3.95;54.78;96177.13;106151;1262;97298;-82
2023/11/29 12:17:17;;;;;;;33.50;19.30;;;;;;;3.71;55.15;96173.46;104157;1280;98498;-82
2023/11/29 13:06:52;;;;;;;46.40;28.90;;;;;;;2.74;55.82;96160.58;105570;1265;99829;-91
2023/11/29 13:09:59;;;;;;;45.00;26.40;;;;;;;2.85;55.97;96161.89;106923;1251;100066;-82
2023/11/29 13:13:07;;;;;;;38.10;23.60;;;;;;;2.97;55.85;96162.89;105538;1265;98908;-83
2023/11/29 13:16:14;;;;;;;42.50;24.20;;;;;;;3.13;55.53;96156.80;104713;1273;96171;-83
2023/11/29 13:43:07;;;;;;;44.00;27.60;;;;;;;3.56;54.36;96165.88;102142;1288;640330;-83
2023/11/29 13:46:03;;;;;;;41.80;24.70;;;;;;;3.22;53.72;96165.22;100306;1270;5336148;-82
2023/11/29 13:48:57;;;;;;;49.60;26.30;;;;;;;2.83;53.89;96165.27;104112;1283;98557;-83
2023/11/29 13:52:04;;;;;;;49.00;25.20;;;;;;;2.50;54.35;96170.45;104037;1275;100318;-83
2023/11/29 13:55:11;;;;;;;48.30;26.60;;;;;;;2.22;54.80;96173.22;103015;1283;99258;-81
2023/11/29 13:58:19;;;;;;;46.00;25.70;;;;;;;1.98;55.21;96177.30;102266;1295;97255;-82
2023/11/29 14:21:40;;;;;;;55.20;31.70;;;;;;;1.40;56.05;96194.13;102146;1291;641368;-83
2023/11/29 14:24:39;;;;;;;50.70;29.60;;;;;;;1.17;55.99;96207.38;98970;1287;5339983;-83